Time;durP1;ratioP1;P1;durP2;ratioP2;P2;SDS_P1;SDS_P2;PMS_P1;PMS_P2;Temp;Humidity;BMP_temperature;BMP_pressure;BME280_temperature;BME280_humidity;BME280_pressure;Samples;Min_cycle;Max_cycle;Signal;HPM_P1;HPM_P2
2022/07/29 00:00:09;;;;;;;;;6.00;4.67;;;;;21.90;60.66;101154.50;6308935;22;45271;-95
2022/07/29 00:02:34;;;;;;;;;4.00;4.00;;;;;21.83;61.16;101150.84;6309876;22;45320;-95
2022/07/29 00:05:00;;;;;;;;;5.00;5.00;;;;;21.80;61.16;101147.28;6308580;22;48448;-95
2022/07/29 00:07:25;;;;;;;;;5.33;5.33;;;;;21.75;61.20;101148.13;6309229;22;45283;-94
2022/07/29 00:09:51;;;;;;;;;0.67;0.67;;;;;21.76;61.18;101149.03;6335381;22;45284;-95
2022/07/29 00:12:17;;;;;;;;;4.00;4.00;;;;;21.77;61.40;101150.84;6315257;22;45158;-95
2022/07/29 00:14:42;;;;;;;;;4.00;4.00;;;;;21.79;61.81;101154.41;6317729;22;47360;-94
2022/07/29 00:17:08;;;;;;;;;5.33;5.00;;;;;21.72;61.53;101133.91;6318933;22;45242;-96
2022/07/29 00:19:34;;;;;;;;;5.67;5.00;;;;;21.74;61.90;101134.78;6317901;22;45262;-95
2022/07/29 00:22:00;;;;;;;;;5.67;5.67;;;;;21.59;62.05;101108.91;6318672;22;45578;-96
2022/07/29 00:24:25;;;;;;;;;7.00;5.00;;;;;21.57;62.20;101114.22;6318106;22;48288;-95
2022/07/29 00:26:50;;;;;;;;;5.00;5.00;;;;;21.57;62.17;101103.53;6318337;22;45727;-95
2022/07/29 00:29:16;;;;;;;;;5.00;3.33;;;;;21.60;62.49;101110.66;6318449;22;45322;-95
2022/07/29 00:31:41;;;;;;;;;5.00;5.00;;;;;21.59;62.56;101103.56;6319155;22;45381;-96
2022/07/29 00:35:43;;;;;;;;;6.00;6.00;;;;;21.54;63.04;101093.72;6318537;22;47875;-95
2022/07/29 00:36:52;;;;;;;;;5.67;5.67;;;;;21.51;62.99;101091.06;6340560;22;45704;-96
2022/07/29 00:39:17;;;;;;;;;7.00;7.00;;;;;21.47;62.70;101091.91;6309231;22;45563;-96
2022/07/29 00:41:42;;;;;;;;;6.00;5.67;;;;;21.44;62.49;101079.44;6309697;22;45271;-95
2022/07/29 00:44:08;;;;;;;;;5.67;5.67;;;;;21.42;63.15;101075.88;6336875;22;46354;-96
2022/07/29 00:46:33;;;;;;;;;6.33;6.33;;;;;21.46;63.27;101076.78;6309876;22;45449;-96
2022/07/29 00:48:58;;;;;;;;;5.33;5.33;;;;;21.39;63.04;101067.84;6309106;22;45413;-95
2022/07/29 00:51:26;;;;;;;;;6.67;6.00;;;;;21.43;63.21;101085.69;6308445;22;45404;-95
2022/07/29 00:53:52;;;;;;;;;7.67;6.00;;;;;21.26;63.19;101056.19;6309852;22;48108;-95
2022/07/29 00:56:18;;;;;;;;;6.67;6.33;;;;;21.27;63.16;101062.44;6308436;22;45273;-95
2022/07/29 00:58:46;;;;;;;;;6.67;6.67;;;;;21.37;63.77;101071.38;6309018;22;45205;-96
2022/07/29 01:01:12;;;;;;;;;7.00;7.00;;;;;21.25;63.95;101048.19;6309141;22;45376;-96
2022/07/29 01:03:37;;;;;;;;;6.33;5.00;;;;;21.24;64.33;101041.94;6308692;22;47827;-95
2022/07/29 01:06:04;;;;;;;;;7.33;7.33;;;;;21.28;64.61;101038.44;6334785;22;45383;-96
2022/07/29 01:08:32;;;;;;;;;7.67;7.67;;;;;21.26;64.46;101034.84;6309098;22;45407;-95
2022/07/29 01:10:59;;;;;;;;;8.33;8.00;;;;;21.30;64.92;101027.75;6308439;22;45230;-95
2022/07/29 01:13:25;;;;;;;;;6.33;6.33;;;;;21.16;64.84;100999.19;6308421;22;47392;-95
2022/07/29 01:15:56;;;;;;;;;7.00;7.00;;;;;21.13;64.97;100993.84;6308734;22;45357;-95
2022/07/29 01:18:37;;;;;;;;;9.67;8.00;;;;;21.19;65.22;100996.56;6308992;22;45270;-96
2022/07/29 01:21:40;;;;;;;;;8.00;8.00;;;;;21.23;65.25;100996.56;6309122;22;45444;-96
2022/07/29 01:24:45;;;;;;;;;7.67;6.67;;;;;21.20;65.73;100990.34;6308360;22;47967;-95
2022/07/29 01:27:16;;;;;;;;;8.00;6.67;;;;;21.18;65.39;100983.22;6308850;22;45813;-96
2022/07/29 01:29:53;;;;;;;;;7.00;6.00;;;;;21.07;65.50;100970.72;6308888;22;45278;-96
2022/07/29 01:32:21;;;;;;;;;5.00;5.00;;;;;21.05;66.05;100966.25;6309587;22;45272;-95
2022/07/29 01:34:47;;;;;;;;;9.00;7.67;;;;;21.07;66.01;100960.03;6334192;22;46973;-96
2022/07/29 01:37:20;;;;;;;;;10.00;7.67;;;;;21.05;66.26;100952.91;6309304;22;45351;-95
2022/07/29 01:39:49;;;;;;;;;9.00;6.00;;;;;21.03;66.65;100946.69;6308480;22;45329;-96
2022/07/29 01:42:30;;;;;;;;;7.00;7.00;;;;;21.01;66.71;100932.38;6307671;22;45428;-96
2022/07/29 01:45:12;;;;;;;;;6.00;6.00;;;;;20.86;66.72;100905.66;6308144;22;47115;-95
2022/07/29 01:48:02;;;;;;;;;7.67;7.33;;;;;20.82;66.97;100895.81;6308568;22;45421;-95
2022/07/29 01:50:34;;;;;;;;;5.67;5.67;;;;;20.81;67.07;100891.41;6308370;22;45352;-94
2022/07/29 01:53:04;;;;;;;;;7.33;6.00;;;;;20.93;67.17;100906.56;6309153;22;45245;-96
2022/07/29 01:55:34;;;;;;;;;7.33;7.00;;;;;20.69;67.39;100867.34;6308571;22;47192;-95
2022/07/29 01:58:02;;;;;;;;;7.00;6.00;;;;;20.72;67.58;100875.34;6308871;22;45268;-96
2022/07/29 02:00:31;;;;;;;;;6.00;6.00;;;;;20.65;67.22;100855.75;6308566;22;45886;-95
2022/07/29 02:03:00;;;;;;;;;5.00;5.00;;;;;20.77;67.49;100878.94;6314428;22;45411;-96
2022/07/29 02:05:28;;;;;;;;;6.00;6.00;;;;;20.74;67.70;100877.16;6317854;22;47199;-95
2022/07/29 02:07:57;;;;;;;;;8.00;7.00;;;;;20.74;67.25;100876.25;6318616;22;45329;-95
2022/07/29 02:10:27;;;;;;;;;8.33;6.33;;;;;20.64;67.32;100868.19;6317765;22;45274;-96
2022/07/29 02:12:55;;;;;;;;;9.00;7.33;;;;;20.62;67.67;100864.63;6317915;22;45428;-95
2022/07/29 02:15:24;;;;;;;;;6.00;6.00;;;;;20.54;67.94;100859.25;6317794;22;47240;-96
2022/07/29 02:17:55;;;;;;;;;6.33;6.00;;;;;20.53;67.79;100859.25;6318350;22;45818;-96
2022/07/29 02:20:25;;;;;;;;;6.00;4.67;;;;;20.65;67.96;100880.66;6318535;22;45180;-96
2022/07/29 02:22:53;;;;;;;;;8.00;7.00;;;;;20.58;67.89;100859.28;6318542;22;45535;-96
2022/07/29 02:25:22;;;;;;;;;6.00;5.67;;;;;20.53;67.77;100862.81;6318031;22;47299;-95
2022/07/29 02:27:50;;;;;;;;;7.00;7.00;;;;;20.51;68.11;100848.56;6312452;22;45957;-96
2022/07/29 02:30:17;;;;;;;;;5.00;5.00;;;;;20.50;68.22;100854.78;6308798;22;45391;-95
2022/07/29 02:32:45;;;;;;;;;8.33;7.00;;;;;20.54;68.10;100858.34;6308807;22;45388;-96
2022/07/29 02:35:13;;;;;;;;;5.33;5.33;;;;;20.41;68.39;100830.75;6308668;22;48120;-95
2022/07/29 02:37:40;;;;;;;;;7.33;7.33;;;;;20.30;68.24;100810.25;6308949;22;45290;-96
2022/07/29 02:40:10;;;;;;;;;8.00;6.33;;;;;20.37;68.67;100821.84;6307846;22;45485;-95
2022/07/29 02:42:37;;;;;;;;;5.67;5.67;;;;;20.41;68.91;100820.09;6308598;22;45455;-95
2022/07/29 02:45:04;;;;;;;;;6.00;5.33;;;;;20.34;68.75;100799.59;6308146;22;47294;-95
2022/07/29 02:47:50;;;;;;;;;6.33;6.33;;;;;20.36;69.07;100801.38;6334634;22;45371;-96
2022/07/29 02:50:19;;;;;;;;;9.33;7.00;;;;;20.39;69.05;100817.41;6307732;22;45406;-96
2022/07/29 02:53:00;;;;;;;;;8.00;4.67;;;;;20.25;69.04;100779.13;6308379;22;45410;-96
2022/07/29 02:55:32;;;;;;;;;7.00;7.00;;;;;20.25;69.71;100766.69;6308085;22;47407;-95
2022/07/29 02:58:22;;;;;;;;;5.67;5.00;;;;;20.28;69.33;100741.84;6308481;22;45662;-95
2022/07/29 03:00:51;;;;;;;;;6.33;6.33;;;;;20.13;69.45;100729.31;6307672;22;45439;-95
2022/07/29 03:03:21;;;;;;;;;6.67;6.67;;;;;20.16;69.84;100732.88;6308068;22;45407;-96
2022/07/29 03:05:54;;;;;;;;;6.00;6.00;;;;;20.18;69.87;100725.78;6308317;22;47249;-95
2022/07/29 03:08:21;;;;;;;;;5.00;5.00;;;;;20.05;69.70;100716.81;6308276;22;45240;-95
2022/07/29 03:10:47;;;;;;;;;6.00;6.00;;;;;19.98;69.87;100709.66;6306938;22;45349;-96
2022/07/29 03:13:14;;;;;;;;;6.33;6.33;;;;;20.06;69.79;100731.03;6308028;22;45422;-95
2022/07/29 03:15:42;;;;;;;;;3.67;3.67;;;;;20.04;69.74;100725.69;6307346;22;48167;-95
2022/07/29 03:18:10;;;;;;;;;6.00;6.00;;;;;20.10;69.73;100740.84;6307511;22;45310;-96
2022/07/29 03:20:37;;;;;;;;;6.00;6.00;;;;;19.92;69.81;100721.16;6308393;22;45515;-96
2022/07/29 03:23:03;;;;;;;;;6.00;6.00;;;;;19.91;69.79;100724.72;6308571;22;45483;-95
2022/07/29 03:25:28;;;;;;;;;8.67;5.33;;;;;19.99;69.92;100744.31;6307438;22;47189;-94
2022/07/29 03:27:53;;;;;;;;;6.00;6.00;;;;;19.89;69.62;100721.16;6308251;22;45472;-95
2022/07/29 03:30:19;;;;;;;;;5.00;5.00;;;;;19.92;69.82;100731.81;6333701;22;45399;-95
2022/07/29 03:32:45;;;;;;;;;5.00;5.00;;;;;19.92;70.23;100725.63;6335021;22;45414;-96
2022/07/29 03:35:10;;;;;;;;;6.00;6.00;;;;;19.86;70.31;100711.41;6307668;22;46924;-96
2022/07/29 03:37:36;;;;;;;;;6.33;6.00;;;;;19.91;70.21;100710.53;6308129;22;45251;-95
2022/07/29 03:40:04;;;;;;;;;6.33;5.67;;;;;19.80;70.12;100695.34;6307857;22;45206;-95
2022/07/29 03:42:37;;;;;;;;;8.67;7.33;;;;;19.83;70.25;100698.06;6307825;22;45330;-95
2022/07/29 03:45:06;;;;;;;;;8.00;7.00;;;;;19.72;70.40;100679.34;6306990;22;47473;-95
2022/07/29 03:47:35;;;;;;;;;5.67;5.00;;;;;19.83;70.46;100694.50;6308138;22;45409;-94
2022/07/29 03:50:06;;;;;;;;;8.00;8.00;;;;;19.71;70.46;100676.69;6307093;22;45477;-96
2022/07/29 03:52:32;;;;;;;;;6.00;6.00;;;;;19.69;70.74;100679.31;6311415;22;45364;-96
2022/07/29 03:54:58;;;;;;;;;5.33;5.33;;;;;19.79;70.36;100692.69;6316961;22;48089;-96
2022/07/29 03:57:28;;;;;;;;;6.00;6.00;;;;;19.63;70.82;100666.88;6317314;22;45385;-95
2022/07/29 03:59:54;;;;;;;;;6.33;6.00;;;;;19.73;70.92;100682.91;6316849;22;45222;-95
2022/07/29 04:02:20;;;;;;;;;6.67;6.67;;;;;19.61;70.96;100673.94;6317653;22;45276;-95
2022/07/29 04:04:46;;;;;;;;;4.00;4.00;;;;;19.61;70.78;100671.28;6316689;22;47236;-96
2022/07/29 04:07:15;;;;;;;;;6.00;6.00;;;;;19.55;70.75;100652.63;6319299;22;45687;-95
2022/07/29 04:09:42;;;;;;;;;6.33;6.00;;;;;19.64;70.78;100679.28;6318926;22;45294;-95
2022/07/29 04:12:07;;;;;;;;;9.00;7.67;;;;;19.68;71.20;100668.66;6319364;22;45246;-95
2022/07/29 04:14:34;;;;;;;;;7.67;7.67;;;;;19.68;71.21;100663.34;6317781;22;47274;-95
2022/07/29 04:17:01;;;;;;;;;6.00;6.00;;;;;19.62;71.27;100641.13;6316575;22;45192;-95
2022/07/29 04:19:26;;;;;;;;;5.00;4.00;;;;;19.61;71.75;100623.34;6309544;22;45300;-95
2022/07/29 04:21:52;;;;;;;;;7.67;7.67;;;;;19.62;71.92;100611.84;6309968;22;45455;-95
2022/07/29 04:24:18;;;;;;;;;9.00;9.00;;;;;19.59;72.21;100593.16;6308690;22;48013;-94
2022/07/29 04:26:44;;;;;;;;;7.33;6.33;;;;;19.58;72.44;100580.75;6309279;22;45826;-96
2022/07/29 04:29:11;;;;;;;;;6.67;6.00;;;;;19.54;72.28;100573.63;6308401;22;45352;-95
2022/07/29 04:31:37;;;;;;;;;6.33;6.33;;;;;19.51;72.41;100555.88;6309480;22;45375;-96
2022/07/29 04:34:02;;;;;;;;;6.00;6.00;;;;;19.49;72.54;100544.31;6315045;22;48023;-95
2022/07/29 04:36:28;;;;;;;;;8.67;8.00;;;;;19.56;72.56;100547.03;6309775;22;45574;-96
2022/07/29 04:38:53;;;;;;;;;6.00;6.00;;;;;19.54;72.65;100531.03;6309638;22;45392;-96
2022/07/29 04:41:18;;;;;;;;;5.00;5.00;;;;;19.71;73.10;100564.84;6308692;22;45685;-96
2022/07/29 04:43:44;;;;;;;;;6.00;6.00;;;;;19.57;72.95;100525.72;6309395;22;47121;-96
2022/07/29 04:46:09;;;;;;;;;7.67;6.00;;;;;19.67;73.22;100549.72;6309059;22;45242;-96
2022/07/29 04:48:35;;;;;;;;;9.67;8.00;;;;;19.70;73.27;100539.09;6308877;22;45323;-96
2022/07/29 04:51:00;;;;;;;;;5.33;5.33;;;;;19.65;73.13;100531.09;6309096;22;45210;-96
2022/07/29 04:53:26;;;;;;;;;6.33;6.00;;;;;19.83;73.36;100550.69;6334389;22;47952;-96
2022/07/29 04:55:51;;;;;;;;;7.00;5.00;;;;;19.80;73.19;100529.34;6308400;22;45878;-96
2022/07/29 04:58:17;;;;;;;;;6.33;6.00;;;;;19.98;73.29;100550.72;6308684;22;45640;-96
2022/07/29 05:00:45;;;;;;;;;6.00;6.00;;;;;20.05;73.61;100532.97;6307760;22;45411;-96
2022/07/29 05:03:12;;;;;;;;;8.00;8.00;;;;;20.06;73.81;100515.22;6313251;22;46990;-96
2022/07/29 05:05:40;;;;;;;;;8.00;5.33;;;;;20.19;73.24;100529.50;6309297;22;45410;-96
2022/07/29 05:08:06;;;;;;;;;8.00;6.67;;;;;20.34;73.63;100541.94;6308951;22;45415;-96
2022/07/29 05:10:32;;;;;;;;;8.33;6.33;;;;;20.46;73.79;100522.41;6308129;22;45447;-96
2022/07/29 05:12:58;;;;;;;;;6.00;5.67;;;;;20.52;73.89;100521.53;6309053;22;48171;-96
2022/07/29 05:15:23;;;;;;;;;6.00;6.00;;;;;20.66;73.68;100537.53;6308594;22;45839;-96
2022/07/29 05:17:49;;;;;;;;;7.00;5.00;;;;;20.74;73.18;100543.78;6309329;22;45731;-96
2022/07/29 05:20:14;;;;;;;;;4.33;4.33;;;;;20.94;73.07;100597.97;6333810;22;45442;-96
2022/07/29 05:22:40;;;;;;;;;6.67;6.00;;;;;21.04;73.25;100589.13;6308982;22;46704;-96
2022/07/29 05:25:06;;;;;;;;;7.33;5.67;;;;;21.01;73.19;100589.13;6308507;22;45399;-96
2022/07/29 05:27:31;;;;;;;;;5.67;5.67;;;;;21.13;72.76;100609.56;6336533;22;45352;-96
2022/07/29 05:29:56;;;;;;;;;6.33;6.33;;;;;21.19;72.40;100622.91;6308919;22;45352;-95
2022/07/29 05:32:22;;;;;;;;;7.33;7.00;;;;;21.31;72.51;100638.00;6309028;22;46875;-96
2022/07/29 05:34:47;;;;;;;;;7.33;6.00;;;;;21.31;72.07;100635.34;6308431;22;45250;-96
2022/07/29 05:37:13;;;;;;;;;6.67;6.67;;;;;21.36;71.67;100648.69;6309271;22;45175;-96
2022/07/29 05:39:39;;;;;;;;;7.00;7.00;;;;;21.48;71.32;100687.84;6308286;22;45259;-96
2022/07/29 05:42:11;;;;;;;;;8.00;8.00;;;;;21.39;71.32;100677.19;6314021;22;47415;-96
2022/07/29 05:44:39;;;;;;;;;5.67;5.67;;;;;21.41;71.81;100681.63;6318410;22;45316;-96
2022/07/29 05:47:06;;;;;;;;;7.00;7.00;;;;;21.50;71.35;100701.16;6318855;22;45246;-96
2022/07/29 05:49:31;;;;;;;;;7.00;5.00;;;;;21.48;71.65;100700.28;6317548;22;45333;-96
2022/07/29 05:51:58;;;;;;;;;6.00;6.00;;;;;21.37;71.80;100687.84;6318591;22;46975;-96
2022/07/29 05:54:23;;;;;;;;;6.00;6.00;;;;;21.39;71.82;100674.50;6344395;22;45300;-96
2022/07/29 05:56:48;;;;;;;;;8.00;7.00;;;;;21.38;71.68;100684.28;6318249;22;45383;-95
2022/07/29 05:59:14;;;;;;;;;6.00;6.00;;;;;21.46;71.81;100700.31;6318342;22;45353;-95
2022/07/29 06:01:39;;;;;;;;;6.67;6.67;;;;;21.53;71.96;100703.84;6317157;22;47724;-95
2022/07/29 06:04:06;;;;;;;;;5.00;5.00;;;;;21.50;71.98;100690.50;6317577;22;45432;-95
2022/07/29 06:06:32;;;;;;;;;7.67;6.00;;;;;21.53;71.88;100699.41;6314947;22;45357;-96
2022/07/29 06:08:57;;;;;;;;;5.00;5.00;;;;;21.47;72.11;100686.03;6308818;22;45253;-95
2022/07/29 06:11:24;;;;;;;;;9.33;7.67;;;;;21.55;71.99;100707.41;6308087;22;47854;-96
2022/07/29 06:13:49;;;;;;;;;6.33;6.33;;;;;21.57;72.20;100705.59;6309089;22;45227;-95
2022/07/29 06:16:15;;;;;;;;;5.33;5.33;;;;;21.58;71.81;100710.06;6308032;22;45306;-96
2022/07/29 06:18:40;;;;;;;;;5.67;5.67;;;;;21.56;72.02;100703.84;6309147;22;45286;-86
2022/07/29 06:21:09;;;;;;;;;8.33;7.00;;;;;21.71;71.52;100751.00;6334657;22;45530;-88
2022/07/29 06:23:38;;;;;;;;;5.00;5.00;;;;;21.78;71.60;100759.91;6334116;22;45384;-88
2022/07/29 06:26:03;;;;;;;;;8.67;7.67;;;;;21.79;71.43;100751.00;6334208;22;45387;-88
2022/07/29 06:28:29;;;;;;;;;6.67;5.67;;;;;21.81;71.53;100754.56;6334855;22;45231;-84
2022/07/29 06:30:54;;;;;;;;;6.00;6.00;;;;;21.80;71.48;100746.56;6333936;22;45304;-84
2022/07/29 06:33:19;;;;;;;;;6.33;5.67;;;;;21.84;71.63;100754.56;6334240;22;45271;-84
2022/07/29 06:35:47;;;;;;;;;7.67;7.67;;;;;21.91;71.84;100743.88;6335038;22;45286;-84
2022/07/29 06:38:13;;;;;;;;;7.67;6.67;;;;;21.98;71.74;100748.34;6334372;22;45379;-83
2022/07/29 06:40:59;;;;;;;;;9.00;7.00;;;;;22.15;71.49;100776.78;6333401;22;45905;-84
2022/07/29 06:43:31;;;;;;;;;8.00;7.00;;;;;22.24;70.88;100802.63;6334526;22;45304;-84
2022/07/29 06:46:01;;;;;;;;;6.00;5.67;;;;;22.29;70.64;100808.84;6334548;22;45273;-84
2022/07/29 06:48:28;;;;;;;;;5.67;5.67;;;;;22.32;70.13;100832.88;6334291;22;45399;-84
2022/07/29 06:50:54;;;;;;;;;6.33;5.00;;;;;22.40;70.77;100836.44;6333637;22;45343;-84
2022/07/29 06:53:19;;;;;;;;;6.33;6.33;;;;;22.50;69.96;100852.44;6334384;22;45245;-84
2022/07/29 06:55:44;;;;;;;;;6.00;6.00;;;;;22.59;70.05;100855.09;6305517;22;45240;-84
2022/07/29 06:58:10;;;;;;;;;6.33;6.00;;;;;22.68;69.75;100867.53;6334157;22;48304;-84
2022/07/29 07:00:36;;;;;;;;;6.33;5.33;;;;;22.75;69.65;100888.09;6333394;22;45392;-84
2022/07/29 07:03:01;;;;;;;;;6.67;6.33;;;;;22.78;69.64;100892.53;6334637;22;45344;-84
2022/07/29 07:05:26;;;;;;;;;7.67;6.67;;;;;22.83;69.54;100901.41;6305246;22;54477;-84
2022/07/29 07:07:51;;;;;;;;;6.00;6.00;;;;;22.92;69.44;100915.66;6335046;22;45335;-84
2022/07/29 07:10:17;;;;;;;;;7.67;7.00;;;;;22.94;69.41;100903.16;6333371;22;56176;-84
2022/07/29 07:12:42;;;;;;;;;6.33;6.00;;;;;23.02;69.45;100913.84;6305410;22;59009;-84
2022/07/29 07:15:08;;;;;;;;;8.00;7.00;;;;;23.04;69.08;100923.63;6334217;22;45328;-84
2022/07/29 07:17:33;;;;;;;;;4.67;4.67;;;;;23.09;69.43;100929.00;6335194;22;45364;-84
2022/07/29 07:19:59;;;;;;;;;7.33;6.00;;;;;23.15;69.44;100930.75;6333359;22;45344;-84
2022/07/29 07:22:24;;;;;;;;;6.00;6.00;;;;;23.26;69.28;100942.31;6334117;22;52724;-84
2022/07/29 07:24:49;;;;;;;;;6.00;5.33;;;;;23.35;69.49;100948.53;6333541;22;46256;-84
2022/07/29 07:27:14;;;;;;;;;7.00;5.67;;;;;23.45;69.23;100942.22;6333728;22;58991;-84
2022/07/29 07:29:40;;;;;;;;;7.67;6.33;;;;;23.55;69.29;100935.03;6333366;22;45645;-84
2022/07/29 07:32:06;;;;;;;;;6.33;5.33;;;;;23.70;69.38;100950.13;6334677;22;45356;-84
2022/07/29 07:34:31;;;;;;;;;6.00;5.00;;;;;23.82;68.90;100959.88;6334072;22;45344;-84
2022/07/29 07:36:57;;;;;;;;;7.00;7.00;;;;;23.94;68.66;100966.91;6334222;22;45341;-84
2022/07/29 07:39:22;;;;;;;;;5.00;5.00;;;;;24.07;68.79;100974.91;6333477;22;46073;-84
2022/07/29 07:41:47;;;;;;;;;5.67;5.00;;;;;24.18;68.60;100977.47;6335261;22;45269;-84
2022/07/29 07:44:13;;;;;;;;;5.33;5.33;;;;;24.30;68.55;100988.13;6334566;22;52182;-84
2022/07/29 07:46:38;;;;;;;;;5.00;4.33;;;;;24.48;68.19;101004.09;6335100;22;66100;-84
2022/07/29 07:49:03;;;;;;;;;6.33;4.67;;;;;24.61;67.95;101010.25;6334943;22;50196;-84
2022/07/29 07:51:28;;;;;;;;;6.67;6.33;;;;;24.73;67.77;101028.91;6335218;22;47193;-84
2022/07/29 07:53:54;;;;;;;;;7.00;6.00;;;;;24.87;67.64;101039.50;6335955;22;45175;-84
2022/07/29 07:56:19;;;;;;;;;5.33;5.33;;;;;24.99;67.27;101053.72;6335070;22;45190;-84
2022/07/29 07:58:44;;;;;;;;;7.33;7.33;;;;;25.11;67.12;101060.78;6334863;22;61733;-84
2022/07/29 08:01:10;;;;;;;;;4.00;4.00;;;;;25.16;67.21;101055.34;6335009;22;45667;-84
2022/07/29 08:03:36;;;;;;;;;5.00;4.00;;;;;25.29;67.04;101067.75;6306864;22;45279;-84
2022/07/29 08:06:03;;;;;;;;;6.00;5.00;;;;;25.40;66.82;101073.00;6335349;22;45304;-85
2022/07/29 08:08:28;;;;;;;;;5.00;5.00;;;;;25.53;66.67;101079.13;6335622;22;46237;-85
2022/07/29 08:10:57;;;;;;;;;5.00;5.00;;;;;25.63;66.45;101087.06;6334154;22;45327;-85
2022/07/29 08:13:27;;;;;;;;;6.00;6.00;;;;;25.79;66.11;101103.91;6307312;22;45299;-85
2022/07/29 08:16:00;;;;;;;;;5.00;5.00;;;;;25.89;65.83;101105.56;6335229;22;45327;-85
2022/07/29 08:18:30;;;;;;;;;6.00;4.00;;;;;25.93;65.35;101116.25;6335099;22;46151;-84
2022/07/29 08:20:56;;;;;;;;;4.33;3.00;;;;;25.95;65.18;101131.47;6334871;22;45297;-84
2022/07/29 08:23:22;;;;;;;;;4.00;4.00;;;;;25.90;65.08;101133.31;6336010;22;45314;-85
2022/07/29 08:25:52;;;;;;;;;6.00;6.00;;;;;25.91;65.05;101134.22;6335197;22;45602;-85
2022/07/29 08:28:17;;;;;;;;;3.00;3.00;;;;;26.00;64.95;101139.50;6335977;22;45305;-85
2022/07/29 08:30:43;;;;;;;;;4.00;4.00;;;;;26.02;64.83;101131.41;6335065;22;45218;-84
2022/07/29 08:33:08;;;;;;;;;4.00;4.00;;;;;26.01;64.26;101143.94;6335551;22;47150;-84
2022/07/29 08:35:33;;;;;;;;;5.00;4.67;;;;;25.94;64.20;101156.59;6335254;22;45325;-84
2022/07/29 08:37:59;;;;;;;;;7.00;5.33;;;;;25.85;64.34;101144.16;6335718;22;57285;-84
2022/07/29 08:40:24;;;;;;;;;3.33;3.33;;;;;25.89;64.53;101153.97;6334162;22;45351;-84
2022/07/29 08:42:50;;;;;;;;;5.00;4.67;;;;;25.99;63.99;101161.91;6332945;22;45269;-84
2022/07/29 08:45:15;;;;;;;;;2.67;2.67;;;;;26.12;63.33;101178.78;6335917;22;45324;-84
2022/07/29 08:47:42;;;;;;;;;4.67;3.33;;;;;26.25;62.61;101202.81;6336176;22;46116;-85
2022/07/29 08:50:09;;;;;;;;;4.00;2.33;;;;;26.37;62.58;101193.69;6307042;22;45645;-84
2022/07/29 08:52:40;;;;;;;;;4.00;4.00;;;;;26.52;62.63;101195.28;6336031;22;45249;-85
2022/07/29 08:55:07;;;;;;;;;4.00;4.00;;;;;26.66;62.19;101211.25;6336090;22;45336;-85
2022/07/29 08:57:34;;;;;;;;;1.67;1.67;;;;;26.80;61.99;101216.44;6334895;22;46361;-85
2022/07/29 09:00:01;;;;;;;;;4.67;4.67;;;;;26.85;61.66;101214.53;6335926;22;45292;-84
2022/07/29 09:02:33;;;;;;;;;3.00;3.00;;;;;27.02;61.26;101236.72;6335172;22;45352;-84
2022/07/29 09:05:00;;;;;;;;;2.67;2.33;;;;;27.11;61.29;101225.81;6335518;22;45352;-85
2022/07/29 09:07:25;;;;;;;;;3.00;3.00;;;;;27.19;60.77;101242.75;6335791;22;45695;-85
2022/07/29 09:09:51;;;;;;;;;4.00;3.00;;;;;27.32;60.47;101239.84;6335583;22;56575;-85
2022/07/29 09:12:16;;;;;;;;;2.00;2.00;;;;;27.40;60.42;101242.41;6334969;22;45337;-85
2022/07/29 09:14:42;;;;;;;;;4.67;3.00;;;;;27.48;60.68;101244.97;6335688;22;49088;-85
2022/07/29 09:17:08;;;;;;;;;3.67;3.00;;;;;27.59;60.47;101244.78;6335092;22;46130;-84
2022/07/29 09:19:35;;;;;;;;;2.33;2.33;;;;;27.70;59.88;101256.28;6335400;22;45426;-85
2022/07/29 09:22:03;;;;;;;;;1.33;1.33;;;;;27.81;59.70;101258.78;6335354;22;45324;-85
2022/07/29 09:24:34;;;;;;;;;3.00;3.00;;;;;27.93;59.16;101259.47;6336129;22;45314;-85
2022/07/29 09:27:00;;;;;;;;;3.00;3.00;;;;;28.00;59.11;101267.41;6334712;22;45344;-85
2022/07/29 09:29:27;;;;;;;;;4.00;4.00;;;;;28.13;59.23;101268.97;6335660;22;45335;-85
2022/07/29 09:31:54;;;;;;;;;3.00;2.67;;;;;28.23;59.18;101273.25;6335139;22;45245;-84
2022/07/29 09:34:28;;;;;;;;;3.00;3.00;;;;;28.32;58.83;101274.88;6335712;22;45230;-84
2022/07/29 09:36:54;;;;;;;;;3.00;2.33;;;;;28.40;58.38;101274.72;6335578;22;45334;-84
2022/07/29 09:39:28;;;;;;;;;1.33;1.33;;;;;28.50;57.87;101280.81;6335636;22;45375;-85
2022/07/29 09:41:57;;;;;;;;;2.00;2.00;;;;;28.57;58.18;101285.16;6334368;22;45205;-84
2022/07/29 09:44:23;;;;;;;;;2.00;2.00;;;;;28.65;58.30;101275.09;6336070;22;45234;-83
2022/07/29 09:46:57;;;;;;;;;3.33;3.33;;;;;28.77;57.17;101294.63;6334671;22;45393;-84
2022/07/29 09:49:23;;;;;;;;;3.00;3.00;;;;;28.85;57.26;101289.94;6334698;22;45359;-84
2022/07/29 09:52:08;;;;;;;;;3.00;3.00;;;;;29.05;57.45;101301.19;6335728;22;45558;-84
2022/07/29 09:54:38;;;;;;;;;2.33;2.33;;;;;29.47;57.45;101302.91;6336067;22;45277;-84
2022/07/29 09:57:25;;;;;;;;;3.67;3.00;;;;;30.09;57.05;101297.66;6334110;22;45402;-84
2022/07/29 10:00:01;;;;;;;;;3.67;3.00;;;;;30.56;56.69;101304.44;6335742;22;45202;-84
2022/07/29 10:02:34;;;;;;;;;4.33;3.00;;;;;30.91;56.05;101303.41;6334518;22;45289;-85
2022/07/29 10:05:01;;;;;;;;;3.00;3.00;;;;;31.63;55.70;101319.19;6335261;22;45409;-84
2022/07/29 10:07:43;;;;;;;;;2.00;2.00;;;;;32.81;55.79;101309.50;6335500;22;45474;-84
2022/07/29 10:10:08;;;;;;;;;1.00;1.00;;;;;34.30;54.95;101317.66;6335517;22;45293;-84
2022/07/29 10:12:47;;;;;;;;;4.00;2.33;;;;;35.81;53.98;101324.03;6334802;22;45330;-84
2022/07/29 10:15:13;;;;;;;;;4.33;3.00;;;;;37.67;53.11;101325.56;6335124;22;45263;-84
2022/07/29 10:17:39;;;;;;;;;1.33;1.33;;;;;39.27;51.82;101333.75;6335525;22;45285;-84
2022/07/29 10:20:05;;;;;;;;;2.33;2.33;;;;;40.72;50.57;101338.34;6335106;22;45655;-85
2022/07/29 10:22:30;;;;;;;;;4.00;3.00;;;;;42.25;47.57;101345.00;6335867;22;45367;-84
2022/07/29 10:24:56;;;;;;;;;2.00;2.00;;;;;43.60;47.36;101349.53;6335662;22;45313;-85
2022/07/29 10:27:21;;;;;;;;;3.00;2.00;;;;;44.77;45.71;101344.72;6334662;22;53092;-85
2022/07/29 10:29:46;;;;;;;;;3.67;2.33;;;;;45.59;42.90;101347.38;6335627;22;45335;-84
2022/07/29 10:32:30;;;;;;;;;1.50;1.00;;;;;46.09;42.49;101349.00;6334581;22;46743;-85
2022/07/29 10:35:27;;;;;;;;;2.00;2.00;;;;;45.90;41.61;101363.81;6335260;22;45331;-85
2022/07/29 10:38:03;;;;;;;;;2.00;2.00;;;;;45.71;41.17;101354.50;6335819;22;46437;-85
2022/07/29 10:43:35;;;;;;;;;2.00;2.00;;;;;45.43;40.60;101355.28;6335410;22;45284;-85
2022/07/29 10:46:01;;;;;;;;;3.00;3.00;;;;;45.67;41.18;101354.94;6334799;22;45257;-85
2022/07/29 10:48:26;;;;;;;;;1.00;1.00;;;;;46.07;40.28;101350.16;6334952;22;45300;-85
2022/07/29 10:50:56;;;;;;;;;2.00;2.00;;;;;46.21;39.66;101352.47;6334651;22;45460;-85
2022/07/29 10:53:23;;;;;;;;;3.00;2.00;;;;;45.69;38.93;101353.78;6335202;22;45300;-85
2022/07/29 10:55:50;;;;;;;;;4.00;3.33;;;;;46.40;39.34;101355.28;6334682;22;45224;-85
2022/07/29 10:58:23;;;;;;;;;3.00;3.00;;;;;47.68;38.49;101363.66;6335807;22;45977;-85
2022/07/29 11:00:53;;;;;;;;;4.00;3.67;;;;;49.10;37.93;101366.19;6335180;22;45305;-85
2022/07/29 11:03:51;;;;;;;;;3.00;3.00;;;;;50.63;37.21;101364.66;6335146;22;45461;-85
2022/07/29 11:06:17;;;;;;;;;4.33;4.33;;;;;52.04;36.23;101372.00;6335964;22;45340;-85
2022/07/29 11:08:42;;;;;;;;;2.00;2.00;;;;;53.35;35.20;101364.00;6335532;22;46149;-86
2022/07/29 11:11:30;;;;;;;;;2.00;2.00;;;;;52.80;34.07;101368.19;6334925;22;45324;-86
2022/07/29 11:13:56;;;;;;;;;1.00;1.00;;;;;51.03;33.25;101369.25;6336116;22;45253;-86
2022/07/29 11:16:22;;;;;;;;;3.00;3.00;;;;;51.04;34.49;101365.41;6336168;22;50505;-85
2022/07/29 11:19:13;;;;;;;;;4.00;4.00;;;;;52.33;33.83;101355.38;6336258;22;45549;-85
2022/07/29 11:21:40;;;;;;;;;2.00;2.00;;;;;53.69;33.61;101355.81;6336269;22;45262;-85
2022/07/29 11:24:27;;;;;;;;;1.33;1.33;;;;;55.01;32.84;101361.53;6336704;22;45502;-85
2022/07/29 11:27:07;;;;;;;;;1.67;1.00;;;;;56.18;31.06;101360.25;6335714;22;45296;-83
2022/07/29 11:29:36;;;;;;;;;3.00;3.00;;;;;56.53;30.81;101364.63;6336138;22;46041;-83
2022/07/29 11:32:11;;;;;;;;;2.33;2.33;;;;;57.12;30.49;101362.69;6335487;22;45314;-83